Moundou Airport Moundou TD
ICAO: FTTD
IATA: MQQ
Category: Medium
Scheduled Services: Yes

Elevation: 1407 ft
TransAlt. 3900 ft.

Airport Communications:
TWR:118.6

FTTD Zoom In..

If you have problems with the map follow the link
https://www.worldairports.se/pages/airport.php?
ICAO=FTTD

Runways:

(A) RW 04 length 9843 ft width 148 ft
---- / hdg 35

(B) RW 22 length 9843 ft width 148 ft
---- / hdg 215

Location; FTTD
Day. 28 / Time. 15.00 Zulu
* QNH: 1011
* Temperature: 36° c. 96.8°f.
* Wind from: 060° Speed 06 kn.
Dewpoint: 17° c.
Visibility: 10 km or more,
No clouds below 1,500 m.
No cumulonimbus, and no significant weather
fenomena in the aerodrome or its vicinity.

FTTD 281500Z 06006KT CAVOK 36/17 Q1011


Wind From 060°
Speed 06 kn.

 
 
jpsmedia worldairports.se 2020   terms of use